createdAt,value
2022-11-28T00:00:39.729Z,21.10
2022-11-28T00:01:35.301Z,21.10
2022-11-28T00:02:30.921Z,21.04
2022-11-28T00:03:26.397Z,21.05
2022-11-28T00:04:11.017Z,21.10
2022-11-28T00:05:07.054Z,21.07
2022-11-28T00:06:02.704Z,21.10
2022-11-28T00:06:58.136Z,21.04
2022-11-28T00:07:53.769Z,21.10
2022-11-28T00:08:49.217Z,21.10
2022-11-28T00:09:44.756Z,21.08
2022-11-28T00:10:40.296Z,21.10
2022-11-28T00:11:35.843Z,20.98
2022-11-28T00:12:31.384Z,21.08
2022-11-28T00:13:26.923Z,21.08
2022-11-28T00:14:22.457Z,21.00
2022-11-28T00:15:18.589Z,21.01
2022-11-28T00:16:14.171Z,21.01
2022-11-28T00:17:09.672Z,20.95
2022-11-28T00:18:05.717Z,21.07
2022-11-28T00:19:01.267Z,21.01
2022-11-28T00:19:56.789Z,21.03
2022-11-28T00:20:52.341Z,21.01
2022-11-28T00:21:48.010Z,21.05
2022-11-28T00:22:43.419Z,21.01
2022-11-28T00:23:38.975Z,21.05
2022-11-28T00:24:34.521Z,20.97
2022-11-28T00:25:30.056Z,21.04
2022-11-28T00:26:25.590Z,21.05
2022-11-28T00:27:21.146Z,20.97
2022-11-28T00:28:16.679Z,20.95
2022-11-28T00:29:12.234Z,20.95
2022-11-28T00:30:07.771Z,20.97
2022-11-28T00:30:52.438Z,21.03
2022-11-28T00:31:48.041Z,21.03
2022-11-28T00:32:43.517Z,20.98
2022-11-28T00:33:39.072Z,21.03
2022-11-28T00:34:23.739Z,21.07
2022-11-28T00:35:19.273Z,21.00
2022-11-28T00:36:14.820Z,20.97
2022-11-28T00:37:10.472Z,20.95
2022-11-28T00:38:05.899Z,20.97
2022-11-28T00:39:01.450Z,21.04
2022-11-28T00:39:57.001Z,21.01
2022-11-28T00:40:52.541Z,21.00
2022-11-28T00:41:48.085Z,21.00
2022-11-28T00:42:43.614Z,20.98
2022-11-28T00:43:39.147Z,20.97
2022-11-28T00:44:35.177Z,20.92
2022-11-28T00:45:30.741Z,20.86
2022-11-28T00:46:26.279Z,21.01
2022-11-28T00:47:21.816Z,20.92
2022-11-28T00:48:17.359Z,20.95
2022-11-28T00:49:12.909Z,20.93
2022-11-28T00:50:08.459Z,20.98
2022-11-28T00:51:03.997Z,20.85
2022-11-28T00:51:49.161Z,20.92
2022-11-28T00:52:44.821Z,20.93
2022-11-28T00:53:40.251Z,20.86
2022-11-28T00:54:35.789Z,20.93
2022-11-28T00:55:31.341Z,20.89
2022-11-28T00:56:26.881Z,20.86
2022-11-28T00:57:22.432Z,20.85
2022-11-28T00:58:17.985Z,20.90
2022-11-28T00:59:13.519Z,20.82
2022-11-28T01:00:09.061Z,20.85
2022-11-28T01:01:04.602Z,20.85
2022-11-28T01:02:00.249Z,20.88
2022-11-28T01:02:55.692Z,20.86
2022-11-28T01:03:51.223Z,20.88
2022-11-28T01:04:46.778Z,20.88
2022-11-28T01:05:42.320Z,20.88
2022-11-28T01:06:37.866Z,20.85
2022-11-28T01:07:33.532Z,20.83
2022-11-28T01:08:30.135Z,20.89
2022-11-28T01:09:25.567Z,20.88
2022-11-28T01:10:21.109Z,20.83
2022-11-28T01:11:16.639Z,20.83
2022-11-28T01:12:12.180Z,20.93
2022-11-28T01:13:07.724Z,20.89
2022-11-28T01:14:03.258Z,20.86
2022-11-28T01:14:58.805Z,20.82
2022-11-28T01:15:54.386Z,20.85
2022-11-28T01:16:49.979Z,20.82
2022-11-28T01:17:45.429Z,20.86
2022-11-28T01:18:40.961Z,20.79
2022-11-28T01:19:36.520Z,20.82
2022-11-28T01:20:32.087Z,20.90
2022-11-28T01:21:27.621Z,20.85
2022-11-28T01:22:23.163Z,20.90
2022-11-28T01:23:18.716Z,20.75
2022-11-28T01:24:14.386Z,20.86
2022-11-28T01:25:09.830Z,20.79
2022-11-28T01:26:05.375Z,20.85
2022-11-28T01:27:00.916Z,20.85
2022-11-28T01:27:45.577Z,20.83
2022-11-28T01:28:41.118Z,20.77
2022-11-28T01:29:36.662Z,20.82
2022-11-28T01:30:32.202Z,20.82
2022-11-28T01:31:27.768Z,20.80
2022-11-28T01:32:23.283Z,20.88
2022-11-28T01:33:18.827Z,20.82
2022-11-28T01:34:14.376Z,20.88
2022-11-28T01:35:09.909Z,20.79
2022-11-28T01:36:05.451Z,20.82
2022-11-28T01:37:00.984Z,20.74
2022-11-28T01:37:56.525Z,20.68
2022-11-28T01:38:52.075Z,20.83
2022-11-28T01:39:47.732Z,20.85
2022-11-28T01:40:43.673Z,20.74
2022-11-28T01:41:39.210Z,20.79
2022-11-28T01:42:34.756Z,20.80
2022-11-28T01:43:30.313Z,20.83
2022-11-28T01:44:25.861Z,20.86
2022-11-28T01:45:21.401Z,20.86
2022-11-28T01:46:17.004Z,20.85
2022-11-28T01:47:12.587Z,20.75
2022-11-28T01:48:08.038Z,20.74
2022-11-28T01:49:03.594Z,20.75
2022-11-28T01:49:59.143Z,20.80
2022-11-28T01:50:54.679Z,20.83
2022-11-28T01:51:59.797Z,20.70
2022-11-28T01:52:55.835Z,20.73
2022-11-28T01:53:51.366Z,20.83
2022-11-28T01:54:46.904Z,20.82
2022-11-28T01:55:42.559Z,20.85
2022-11-28T01:56:37.977Z,20.75
2022-11-28T01:57:33.522Z,20.75
2022-11-28T01:58:29.061Z,20.75
2022-11-28T01:59:24.588Z,20.80
2022-11-28T02:00:20.125Z,20.77
2022-11-28T02:01:15.758Z,20.80
2022-11-28T02:02:11.745Z,20.86
2022-11-28T02:03:07.236Z,20.79
2022-11-28T02:04:02.768Z,20.77
2022-11-28T02:04:58.795Z,20.83
2022-11-28T02:05:54.328Z,20.88
2022-11-28T02:06:49.866Z,20.77
2022-11-28T02:07:45.503Z,20.75
2022-11-28T02:08:40.955Z,20.77
2022-11-28T02:09:36.501Z,20.79
2022-11-28T02:10:32.039Z,20.79
2022-11-28T02:11:27.684Z,20.77
2022-11-28T02:12:23.106Z,20.75
2022-11-28T02:13:18.641Z,20.80
2022-11-28T02:14:14.222Z,20.79
2022-11-28T02:15:09.785Z,20.74
2022-11-28T02:16:05.376Z,20.75
2022-11-28T02:17:00.856Z,20.77
2022-11-28T02:17:56.384Z,20.80
2022-11-28T02:18:51.919Z,20.77
2022-11-28T02:19:47.467Z,20.71
2022-11-28T02:20:43.004Z,20.79
2022-11-28T02:21:38.532Z,20.74
2022-11-28T02:22:34.076Z,20.73
2022-11-28T02:23:29.637Z,20.80
2022-11-28T02:24:25.196Z,20.82
2022-11-28T02:25:20.728Z,20.75
2022-11-28T02:26:16.274Z,20.71
2022-11-28T02:27:11.912Z,20.77
2022-11-28T02:28:07.341Z,20.71
2022-11-28T02:29:02.883Z,20.77
2022-11-28T02:29:58.425Z,20.74
2022-11-28T02:30:53.976Z,20.70
2022-11-28T02:31:49.589Z,20.73
2022-11-28T02:32:45.058Z,20.73
2022-11-28T02:33:40.588Z,20.70
2022-11-28T02:34:36.133Z,20.73
2022-11-28T02:35:31.687Z,20.71
2022-11-28T02:36:27.721Z,20.71
2022-11-28T02:37:23.251Z,20.68
2022-11-28T02:38:18.791Z,20.74
2022-11-28T02:39:14.328Z,20.75
2022-11-28T02:40:09.879Z,20.77
2022-11-28T02:41:05.911Z,20.75
2022-11-28T02:42:01.443Z,20.71
2022-11-28T02:42:57.085Z,20.73
2022-11-28T02:43:52.535Z,20.79
2022-11-28T02:44:48.083Z,20.73
2022-11-28T02:45:43.617Z,20.73
2022-11-28T02:46:39.231Z,20.73
2022-11-28T02:47:34.689Z,20.73
2022-11-28T02:48:30.232Z,20.73
2022-11-28T02:49:25.764Z,20.70
2022-11-28T02:50:21.302Z,20.70
2022-11-28T02:51:16.840Z,20.71
2022-11-28T02:52:12.387Z,20.75
2022-11-28T02:53:07.924Z,20.74
2022-11-28T02:54:03.471Z,20.75
2022-11-28T02:54:59.493Z,20.65
2022-11-28T02:55:55.031Z,20.77
2022-11-28T02:56:50.574Z,20.64
2022-11-28T02:57:46.111Z,20.71
2022-11-28T02:58:41.789Z,20.65
2022-11-28T02:59:37.223Z,20.68
2022-11-28T03:00:32.838Z,20.73
2022-11-28T03:01:28.340Z,20.65
2022-11-28T03:02:23.930Z,20.74
2022-11-28T03:03:19.413Z,20.71
2022-11-28T03:04:14.954Z,20.71
2022-11-28T03:05:10.500Z,20.64
2022-11-28T03:06:06.031Z,20.67
2022-11-28T03:07:01.558Z,20.68
2022-11-28T03:07:57.174Z,20.73
2022-11-28T03:08:52.651Z,20.65
2022-11-28T03:09:48.184Z,20.71
2022-11-28T03:10:44.309Z,20.71
2022-11-28T03:11:39.848Z,20.68
2022-11-28T03:12:35.385Z,20.70
2022-11-28T03:13:30.942Z,20.68
2022-11-28T03:14:26.632Z,20.71
2022-11-28T03:15:22.052Z,20.64
2022-11-28T03:16:17.651Z,20.71
2022-11-28T03:17:13.130Z,20.65
2022-11-28T03:18:08.691Z,20.63
2022-11-28T03:19:04.231Z,20.58
2022-11-28T03:19:59.780Z,20.70
2022-11-28T03:20:55.319Z,20.70
2022-11-28T03:21:50.846Z,20.68
2022-11-28T03:22:46.386Z,20.64
2022-11-28T03:23:41.928Z,20.60
2022-11-28T03:24:37.461Z,20.67
2022-11-28T03:25:33.001Z,20.65
2022-11-28T03:26:28.539Z,20.60
2022-11-28T03:27:24.077Z,20.56
2022-11-28T03:28:19.617Z,20.65
2022-11-28T03:29:15.148Z,20.67
2022-11-28T03:30:10.799Z,20.64
2022-11-28T03:31:06.279Z,20.63
2022-11-28T03:32:01.761Z,20.58
2022-11-28T03:32:57.311Z,20.63
2022-11-28T03:33:52.843Z,20.55
2022-11-28T03:34:48.383Z,20.60
2022-11-28T03:35:43.935Z,20.71
2022-11-28T03:36:39.472Z,20.63
2022-11-28T03:37:35.599Z,20.65
2022-11-28T03:38:31.141Z,20.60
2022-11-28T03:39:26.678Z,20.63
2022-11-28T03:40:22.210Z,20.61
2022-11-28T03:41:17.764Z,20.64
2022-11-28T03:42:13.296Z,20.60
2022-11-28T03:43:08.838Z,20.63
2022-11-28T03:44:04.384Z,20.60
2022-11-28T03:44:59.917Z,20.56
2022-11-28T03:45:55.566Z,20.63
2022-11-28T03:46:51.069Z,20.61
2022-11-28T03:47:46.547Z,20.58
2022-11-28T03:48:42.095Z,20.67
2022-11-28T03:49:37.627Z,20.60
2022-11-28T03:50:33.167Z,20.58
2022-11-28T03:51:28.701Z,20.61
2022-11-28T03:52:24.242Z,20.58
2022-11-28T03:53:19.779Z,20.50
2022-11-28T03:54:15.925Z,20.53
2022-11-28T03:55:11.462Z,20.52
2022-11-28T03:56:07.129Z,20.67
2022-11-28T03:57:02.535Z,20.61
2022-11-28T03:57:58.074Z,20.61
2022-11-28T03:58:53.611Z,20.64
2022-11-28T03:59:49.160Z,20.52
2022-11-28T04:00:44.716Z,20.55
2022-11-28T04:01:40.376Z,20.50
2022-11-28T04:02:35.792Z,20.61
2022-11-28T04:03:31.320Z,20.65
2022-11-28T04:04:26.825Z,20.58
2022-11-28T04:05:22.362Z,20.60
2022-11-28T04:06:17.902Z,20.65
2022-11-28T04:07:13.464Z,20.63
2022-11-28T04:08:08.978Z,20.56
2022-11-28T04:09:04.516Z,20.58
2022-11-28T04:10:00.064Z,20.46
2022-11-28T04:10:55.597Z,20.65
2022-11-28T04:11:51.132Z,20.58
2022-11-28T04:12:46.665Z,20.53
2022-11-28T04:13:42.205Z,20.61
2022-11-28T04:14:37.777Z,20.64
2022-11-28T04:15:33.316Z,20.50
2022-11-28T04:16:28.959Z,20.52
2022-11-28T04:17:24.489Z,20.50
2022-11-28T04:18:19.921Z,20.64
2022-11-28T04:19:15.455Z,20.52
2022-11-28T04:20:11.001Z,20.56
2022-11-28T04:21:06.535Z,20.49
2022-11-28T04:22:02.078Z,20.60
2022-11-28T04:22:57.615Z,20.52
2022-11-28T04:23:53.167Z,20.60
2022-11-28T04:24:48.696Z,20.53
2022-11-28T04:25:44.234Z,20.60
2022-11-28T04:26:39.769Z,20.49
2022-11-28T04:27:35.309Z,20.48
2022-11-28T04:28:30.839Z,20.48
2022-11-28T04:29:26.383Z,20.50
2022-11-28T04:30:21.919Z,20.50
2022-11-28T04:31:17.546Z,20.52
2022-11-28T04:32:13.019Z,20.49
2022-11-28T04:33:08.567Z,20.58
2022-11-28T04:34:04.091Z,20.49
2022-11-28T04:34:59.631Z,20.50
2022-11-28T04:35:55.183Z,20.52
2022-11-28T04:36:50.733Z,20.49
2022-11-28T04:37:46.263Z,20.49
2022-11-28T04:38:41.794Z,20.48
2022-11-28T04:39:37.382Z,20.48
2022-11-28T04:40:32.898Z,20.50
2022-11-28T04:41:28.442Z,20.56
2022-11-28T04:42:23.981Z,20.53
2022-11-28T04:43:19.521Z,20.63
2022-11-28T04:44:15.062Z,20.60
2022-11-28T04:45:10.609Z,20.49
2022-11-28T04:46:06.260Z,20.61
2022-11-28T04:47:01.680Z,20.61
2022-11-28T04:47:57.225Z,20.64
2022-11-28T04:48:52.872Z,20.63
2022-11-28T04:49:48.303Z,20.77
2022-11-28T04:50:43.839Z,20.71
2022-11-28T04:51:39.374Z,20.77
2022-11-28T04:52:34.909Z,20.73
2022-11-28T04:53:30.451Z,20.70
2022-11-28T04:54:25.991Z,20.75
2022-11-28T04:55:21.530Z,20.77
2022-11-28T04:56:17.061Z,20.85
2022-11-28T04:57:12.592Z,20.77
2022-11-28T04:58:08.129Z,20.88
2022-11-28T04:59:03.659Z,20.89
2022-11-28T04:59:59.201Z,20.88
2022-11-28T05:00:54.824Z,20.83
2022-11-28T05:01:50.338Z,20.88
2022-11-28T05:02:45.808Z,20.83
2022-11-28T05:03:42.945Z,20.85
2022-11-28T05:04:37.007Z,20.89
2022-11-28T05:05:32.414Z,20.85
2022-11-28T05:06:27.970Z,20.89
2022-11-28T05:07:23.557Z,20.80
2022-11-28T05:08:19.037Z,20.82
2022-11-28T05:09:14.605Z,20.80
2022-11-28T05:10:10.141Z,20.92
2022-11-28T05:11:05.672Z,20.86
2022-11-28T05:12:01.205Z,20.85
2022-11-28T05:12:56.730Z,20.88
2022-11-28T05:13:52.269Z,20.82
2022-11-28T05:14:47.851Z,20.86
2022-11-28T05:15:43.383Z,20.88
2022-11-28T05:16:39.024Z,20.95
2022-11-28T05:17:39.011Z,20.95
2022-11-28T05:18:29.992Z,20.90
2022-11-28T05:19:25.526Z,20.93
2022-11-28T05:20:21.195Z,20.90
2022-11-28T05:21:16.625Z,20.95
2022-11-28T05:22:12.162Z,20.88
2022-11-28T05:23:07.689Z,20.86
2022-11-28T05:24:03.220Z,20.90
2022-11-28T05:24:58.767Z,20.93
2022-11-28T05:25:54.306Z,20.93
2022-11-28T05:26:49.847Z,21.01
2022-11-28T05:27:45.440Z,20.97
2022-11-28T05:28:40.925Z,20.98
2022-11-28T05:29:36.484Z,21.00
2022-11-28T05:30:32.496Z,21.05
2022-11-28T05:31:28.046Z,21.03
2022-11-28T05:32:23.568Z,21.01
2022-11-28T05:33:19.113Z,21.01
2022-11-28T05:34:14.656Z,20.97
2022-11-28T05:35:10.203Z,21.04
2022-11-28T05:36:09.876Z,21.05
2022-11-28T05:37:01.268Z,21.03
2022-11-28T05:37:56.808Z,21.03
2022-11-28T05:38:52.358Z,21.00
2022-11-28T05:39:47.907Z,21.03
2022-11-28T05:40:43.426Z,20.98
2022-11-28T05:41:38.962Z,21.05
2022-11-28T05:42:34.989Z,21.03
2022-11-28T05:43:30.525Z,21.08
2022-11-28T05:44:27.205Z,21.05
2022-11-28T05:45:21.684Z,21.01
2022-11-28T05:46:17.206Z,21.01
2022-11-28T05:47:13.283Z,20.92
2022-11-28T05:48:08.819Z,20.97
2022-11-28T05:49:11.862Z,21.00
2022-11-28T05:50:07.403Z,21.01
2022-11-28T05:51:02.934Z,21.05
2022-11-28T05:51:58.586Z,21.05
2022-11-28T05:52:54.007Z,21.01
2022-11-28T05:53:49.552Z,21.13
2022-11-28T05:54:45.098Z,21.14
2022-11-28T05:55:40.652Z,21.14
2022-11-28T05:56:42.140Z,21.16
2022-11-28T05:57:31.709Z,21.08
2022-11-28T05:58:27.259Z,21.08
2022-11-28T05:59:22.785Z,21.18
2022-11-28T06:00:18.323Z,21.14
2022-11-28T06:01:14.380Z,21.08
2022-11-28T06:02:09.966Z,21.11
2022-11-28T06:03:05.446Z,21.14
2022-11-28T06:04:01.149Z,21.13
2022-11-28T06:04:56.628Z,21.11
2022-11-28T06:05:52.071Z,21.13
2022-11-28T06:06:47.610Z,21.10
2022-11-28T06:07:43.337Z,21.10
2022-11-28T06:08:38.697Z,21.16
2022-11-28T06:09:34.231Z,21.10
2022-11-28T06:10:29.770Z,21.16
2022-11-28T06:11:25.323Z,21.11
2022-11-28T06:12:21.460Z,21.07
2022-11-28T06:13:17.013Z,21.03
2022-11-28T06:14:12.548Z,20.98
2022-11-28T06:15:08.095Z,21.04
2022-11-28T06:16:04.130Z,21.05
2022-11-28T06:16:59.804Z,21.05
2022-11-28T06:17:55.197Z,21.04
2022-11-28T06:18:50.739Z,21.08
2022-11-28T06:19:46.274Z,20.97
2022-11-28T06:20:41.816Z,21.03
2022-11-28T06:21:37.885Z,21.10
2022-11-28T06:22:33.427Z,21.11
2022-11-28T06:23:29.067Z,21.07
2022-11-28T06:24:24.493Z,21.07
2022-11-28T06:25:20.029Z,21.05
2022-11-28T06:26:15.583Z,21.10
2022-11-28T06:27:11.111Z,21.08
2022-11-28T06:28:06.650Z,21.05
2022-11-28T06:29:02.205Z,21.14
2022-11-28T06:29:57.746Z,21.07
2022-11-28T06:30:53.294Z,21.04
2022-11-28T06:31:48.886Z,21.18
2022-11-28T06:32:44.408Z,21.10
2022-11-28T06:33:39.927Z,21.08
2022-11-28T06:34:35.467Z,21.10
2022-11-28T06:35:30.998Z,21.08
2022-11-28T06:36:26.665Z,21.10
2022-11-28T06:37:22.064Z,21.10
2022-11-28T06:38:17.646Z,21.05
2022-11-28T06:39:13.286Z,21.08
2022-11-28T06:40:08.705Z,21.08
2022-11-28T06:41:04.256Z,21.08
2022-11-28T06:41:59.788Z,21.04
2022-11-28T06:42:55.330Z,21.14
2022-11-28T06:43:50.867Z,21.11
2022-11-28T06:44:46.407Z,21.05
2022-11-28T06:45:42.052Z,21.05
2022-11-28T06:46:37.502Z,21.05
2022-11-28T06:47:33.030Z,21.00
2022-11-28T06:48:28.574Z,21.13
2022-11-28T06:49:24.115Z,21.10
2022-11-28T06:50:19.653Z,20.98
2022-11-28T06:51:15.188Z,20.97
2022-11-28T06:52:10.723Z,21.10
2022-11-28T06:53:06.261Z,21.04
2022-11-28T06:54:01.810Z,21.11
2022-11-28T06:54:57.371Z,20.98
2022-11-28T06:55:52.898Z,21.03
2022-11-28T06:56:48.427Z,21.03
2022-11-28T06:57:43.969Z,21.04
2022-11-28T06:58:39.522Z,21.00
2022-11-28T06:59:35.057Z,21.07
2022-11-28T07:00:30.663Z,21.08
2022-11-28T07:01:26.178Z,20.97
2022-11-28T07:02:21.750Z,21.00
2022-11-28T07:03:17.204Z,21.10
2022-11-28T07:04:12.740Z,20.98
2022-11-28T07:05:08.291Z,21.03
2022-11-28T07:06:03.822Z,21.14
2022-11-28T07:06:59.388Z,21.05
2022-11-28T07:07:54.981Z,21.11
2022-11-28T07:08:50.465Z,21.07
2022-11-28T07:09:46.187Z,21.08
2022-11-28T07:10:41.678Z,21.10
2022-11-28T07:11:37.110Z,21.10
2022-11-28T07:12:32.641Z,21.10
2022-11-28T07:13:28.194Z,21.04
2022-11-28T07:14:23.727Z,21.08
2022-11-28T07:15:19.278Z,21.03
2022-11-28T07:16:14.875Z,20.97
2022-11-28T07:17:10.411Z,21.03
2022-11-28T07:18:05.901Z,20.97
2022-11-28T07:19:01.452Z,21.07
2022-11-28T07:19:56.987Z,21.08
2022-11-28T07:20:52.550Z,21.01
2022-11-28T07:21:48.083Z,21.07
2022-11-28T07:22:43.625Z,20.95
2022-11-28T07:23:39.151Z,21.05
2022-11-28T07:24:34.685Z,21.08
2022-11-28T07:25:30.230Z,21.11
2022-11-28T07:26:25.886Z,21.07
2022-11-28T07:27:21.314Z,21.16
2022-11-28T07:28:21.915Z,21.14
2022-11-28T07:29:12.868Z,21.11
2022-11-28T07:30:08.409Z,21.14
2022-11-28T07:31:03.956Z,21.13
2022-11-28T07:31:59.587Z,21.10
2022-11-28T07:32:55.025Z,21.08
2022-11-28T07:33:50.564Z,21.13
2022-11-28T07:34:50.036Z,21.18
2022-11-28T07:35:41.639Z,21.14
2022-11-28T07:36:37.175Z,21.14
2022-11-28T07:37:32.720Z,21.16
2022-11-28T07:38:28.266Z,21.18
2022-11-28T07:39:23.803Z,21.14
2022-11-28T07:40:19.339Z,21.11
2022-11-28T07:41:14.890Z,21.11
2022-11-28T07:42:10.951Z,21.11
2022-11-28T07:43:05.964Z,21.20
2022-11-28T07:44:01.520Z,21.10
2022-11-28T07:44:57.053Z,21.08
2022-11-28T07:46:01.159Z,21.14
2022-11-28T07:46:48.224Z,21.13
2022-11-28T07:47:43.657Z,21.13
2022-11-28T07:48:39.210Z,21.10
2022-11-28T07:49:34.743Z,21.07
2022-11-28T07:50:30.289Z,21.08
2022-11-28T07:51:26.848Z,21.13
2022-11-28T07:52:29.581Z,21.05
2022-11-28T07:53:25.107Z,21.11
2022-11-28T07:54:20.647Z,21.10
2022-11-28T07:55:16.205Z,21.13
2022-11-28T07:56:11.760Z,20.95
2022-11-28T07:57:14.406Z,19.93
2022-11-28T07:58:02.863Z,20.08
2022-11-28T07:59:01.987Z,20.33
2022-11-28T07:59:43.398Z,20.50
2022-11-28T08:00:38.618Z,20.73
2022-11-28T08:01:34.213Z,20.77
2022-11-28T08:02:18.936Z,20.80
2022-11-28T08:03:14.367Z,20.86
2022-11-28T08:04:10.457Z,20.93
2022-11-28T08:05:06.129Z,21.01
2022-11-28T08:06:03.041Z,21.01
2022-11-28T08:06:57.581Z,21.03
2022-11-28T08:07:53.224Z,21.05
2022-11-28T08:08:48.722Z,21.03
2022-11-28T08:09:44.629Z,20.98
2022-11-28T08:10:52.871Z,21.11
2022-11-28T08:11:48.425Z,21.11
2022-11-28T08:12:43.973Z,21.01
2022-11-28T08:13:39.535Z,21.10
2022-11-28T08:14:35.071Z,21.11
2022-11-28T08:15:30.624Z,21.13
2022-11-28T08:16:26.731Z,21.10
2022-11-28T08:17:22.239Z,21.13
2022-11-28T08:18:17.771Z,21.05
2022-11-28T08:19:13.311Z,21.14
2022-11-28T08:20:08.860Z,21.04
2022-11-28T08:21:04.874Z,21.08
2022-11-28T08:22:00.418Z,21.08
2022-11-28T08:22:55.968Z,21.04
2022-11-28T08:23:52.011Z,21.13
2022-11-28T08:24:47.549Z,21.14
2022-11-28T08:25:43.090Z,21.08
2022-11-28T08:26:38.642Z,21.11
2022-11-28T08:27:34.175Z,21.19
2022-11-28T08:28:29.730Z,21.13
2022-11-28T08:29:25.290Z,21.18
2022-11-28T08:30:21.398Z,21.25
2022-11-28T08:31:17.067Z,21.19
2022-11-28T08:32:12.476Z,21.18
2022-11-28T08:33:08.066Z,21.11
2022-11-28T08:34:03.629Z,21.20
2022-11-28T08:34:59.194Z,21.19
2022-11-28T08:35:54.734Z,21.25
2022-11-28T08:36:50.332Z,21.28
2022-11-28T08:37:46.381Z,21.20
2022-11-28T08:38:44.823Z,21.28
2022-11-28T08:39:37.489Z,21.25
2022-11-28T08:40:33.053Z,21.16
2022-11-28T08:41:28.605Z,21.19
2022-11-28T08:42:24.148Z,21.19
2022-11-28T08:43:19.697Z,21.16
2022-11-28T08:44:15.243Z,21.14
2022-11-28T08:45:10.796Z,21.28
2022-11-28T08:46:06.413Z,21.22
2022-11-28T08:47:01.882Z,21.28
2022-11-28T08:47:57.434Z,21.26
2022-11-28T08:48:52.984Z,21.23
2022-11-28T08:49:48.539Z,21.30
2022-11-28T08:50:47.922Z,21.28
2022-11-28T08:51:40.121Z,21.25
2022-11-28T08:52:35.656Z,21.28
2022-11-28T08:53:31.203Z,21.30
2022-11-28T08:54:27.247Z,21.32
2022-11-28T08:55:31.722Z,21.26
2022-11-28T08:56:18.847Z,21.28
2022-11-28T08:57:14.878Z,21.25
2022-11-28T08:58:10.428Z,21.26
2022-11-28T08:59:05.980Z,21.29
2022-11-28T09:00:01.531Z,21.23
2022-11-28T09:00:57.149Z,21.28
2022-11-28T09:01:53.270Z,21.25
2022-11-28T09:02:48.653Z,21.26
2022-11-28T09:03:44.253Z,21.29
2022-11-28T09:04:39.740Z,21.26
2022-11-28T09:05:35.285Z,21.26
2022-11-28T09:06:31.337Z,21.19
2022-11-28T09:07:26.985Z,21.19
2022-11-28T09:08:23.033Z,21.11
2022-11-28T09:09:08.214Z,21.16
2022-11-28T09:10:03.765Z,21.13
2022-11-28T09:10:59.317Z,21.04
2022-11-28T09:11:54.870Z,21.07
2022-11-28T09:12:50.450Z,21.08
2022-11-28T09:13:46.007Z,21.08
2022-11-28T09:14:41.550Z,21.01
2022-11-28T09:15:37.091Z,21.10
2022-11-28T09:16:32.715Z,21.07
2022-11-28T09:17:28.188Z,20.98
2022-11-28T09:18:24.233Z,21.01
2022-11-28T09:19:19.783Z,21.01
2022-11-28T09:20:15.332Z,21.03
2022-11-28T09:21:10.910Z,21.00
2022-11-28T09:22:06.440Z,21.00
2022-11-28T09:23:01.996Z,21.01
2022-11-28T09:23:57.536Z,21.05
2022-11-28T09:24:53.112Z,21.07
2022-11-28T09:25:48.664Z,21.10
2022-11-28T09:26:44.251Z,21.19
2022-11-28T09:27:39.806Z,21.14
2022-11-28T09:28:35.361Z,21.10
2022-11-28T09:29:30.914Z,21.07
2022-11-28T09:30:26.458Z,21.18
2022-11-28T09:31:22.080Z,21.22
2022-11-28T09:32:17.635Z,21.11
2022-11-28T09:33:13.121Z,21.14
2022-11-28T09:34:08.674Z,21.19
2022-11-28T09:35:04.222Z,21.22
2022-11-28T09:36:00.272Z,21.28
2022-11-28T09:36:58.692Z,21.16
2022-11-28T09:37:51.918Z,21.26
2022-11-28T09:38:47.467Z,21.28
2022-11-28T09:40:04.785Z,21.25
2022-11-28T09:40:39.051Z,21.20
2022-11-28T09:41:34.602Z,21.19
2022-11-28T09:42:30.137Z,21.25
2022-11-28T09:43:25.682Z,21.28
2022-11-28T09:44:21.321Z,21.28
2022-11-28T09:45:16.927Z,21.19
2022-11-28T09:46:12.520Z,21.25
2022-11-28T09:47:08.055Z,21.23
2022-11-28T09:48:04.102Z,21.22
2022-11-28T09:49:00.114Z,21.20
2022-11-28T09:49:55.668Z,21.25
2022-11-28T09:50:51.222Z,21.23
2022-11-28T09:51:46.829Z,21.13
2022-11-28T09:52:42.481Z,21.19
2022-11-28T09:53:37.992Z,21.18
2022-11-28T09:54:33.547Z,21.19
2022-11-28T09:55:29.112Z,21.26
2022-11-28T09:56:25.221Z,21.25
2022-11-28T09:57:20.764Z,21.25
2022-11-28T09:58:16.332Z,21.28
2022-11-28T09:59:11.901Z,21.28
2022-11-28T10:00:07.448Z,21.28
2022-11-28T10:01:03.510Z,21.28
2022-11-28T10:01:59.569Z,21.28
2022-11-28T10:02:55.126Z,21.29
2022-11-28T10:03:50.905Z,21.28
2022-11-28T10:04:46.392Z,21.30
2022-11-28T10:05:42.402Z,21.29
2022-11-28T10:06:37.953Z,21.20
2022-11-28T10:07:34.064Z,21.25
2022-11-28T10:08:29.559Z,21.23
2022-11-28T10:09:25.112Z,21.25
2022-11-28T10:10:20.663Z,21.25
2022-11-28T10:11:16.254Z,21.25
2022-11-28T10:12:11.801Z,21.22
2022-11-28T10:13:07.348Z,21.28
2022-11-28T10:14:10.177Z,21.19
2022-11-28T10:14:58.501Z,21.19
2022-11-28T10:15:54.054Z,21.20
2022-11-28T10:16:49.726Z,21.10
2022-11-28T10:17:45.150Z,21.23
2022-11-28T10:18:40.691Z,21.23
2022-11-28T10:19:53.903Z,21.19
2022-11-28T10:20:21.438Z,21.22
2022-11-28T10:21:17.007Z,21.22
2022-11-28T10:22:12.563Z,21.19
2022-11-28T10:23:08.132Z,21.20
2022-11-28T10:23:52.805Z,21.18
2022-11-28T10:24:48.871Z,21.18
2022-11-28T10:25:44.913Z,21.19
2022-11-28T10:26:40.450Z,21.25
2022-11-28T10:27:35.994Z,21.25
2022-11-28T10:28:31.548Z,21.29
2022-11-28T10:29:27.143Z,21.26
2022-11-28T10:30:22.736Z,21.26
2022-11-28T10:31:18.383Z,21.28
2022-11-28T10:32:13.886Z,21.29
2022-11-28T10:33:09.956Z,21.30
2022-11-28T10:34:05.534Z,21.30
2022-11-28T10:35:01.215Z,21.23
2022-11-28T10:35:57.638Z,21.30
2022-11-28T10:36:53.207Z,21.23
2022-11-28T10:37:48.776Z,21.22
2022-11-28T10:38:44.319Z,21.25
2022-11-28T10:39:39.996Z,21.22
2022-11-28T10:40:35.445Z,21.23
2022-11-28T10:41:30.994Z,21.19
2022-11-28T10:42:15.692Z,21.19
2022-11-28T10:43:11.266Z,21.14
2022-11-28T10:44:06.832Z,21.22
2022-11-28T10:45:02.423Z,21.19
2022-11-28T10:45:58.021Z,21.28
2022-11-28T10:46:54.086Z,21.16
2022-11-28T10:47:49.684Z,21.16
2022-11-28T10:48:41.697Z,21.20
2022-11-28T10:49:29.908Z,21.22
2022-11-28T10:50:14.602Z,21.20
2022-11-28T10:51:10.121Z,21.25
2022-11-28T10:52:05.678Z,21.26
2022-11-28T10:53:01.216Z,21.26
2022-11-28T10:53:56.776Z,21.29
2022-11-28T10:54:52.314Z,21.25
2022-11-28T10:55:48.408Z,21.28
2022-11-28T10:56:43.955Z,21.30
2022-11-28T10:57:39.501Z,21.23
2022-11-28T10:58:35.075Z,21.26
2022-11-28T10:59:19.756Z,21.28
2022-11-28T11:00:15.432Z,21.22
2022-11-28T11:01:11.026Z,21.26
2022-11-28T11:02:06.571Z,21.29
2022-11-28T11:03:02.080Z,21.19
2022-11-28T11:03:57.620Z,21.18
2022-11-28T11:04:53.276Z,21.25
2022-11-28T11:05:48.789Z,21.28
2022-11-28T11:07:06.872Z,21.22
2022-11-28T11:07:39.958Z,21.20
2022-11-28T11:08:35.895Z,21.26
2022-11-28T11:09:20.573Z,21.26
2022-11-28T11:10:31.245Z,21.22
2022-11-28T11:11:15.743Z,21.25
2022-11-28T11:12:00.919Z,21.37
2022-11-28T11:12:56.486Z,21.28
2022-11-28T11:13:41.158Z,21.45
2022-11-28T11:14:36.769Z,21.37
2022-11-28T11:15:21.450Z,21.40
2022-11-28T11:16:17.219Z,21.35
2022-11-28T11:17:01.800Z,21.38
2022-11-28T11:17:46.485Z,21.41
2022-11-28T11:18:42.570Z,21.41
2022-11-28T11:19:38.114Z,21.37
2022-11-28T11:20:33.672Z,21.38
2022-11-28T11:21:18.375Z,21.43
2022-11-28T11:22:14.381Z,21.40
2022-11-28T11:22:59.052Z,21.38
2022-11-28T11:23:54.620Z,21.41
2022-11-28T11:24:50.192Z,21.43
2022-11-28T11:25:45.728Z,21.40
2022-11-28T11:26:30.494Z,21.37
2022-11-28T11:27:26.042Z,21.38
2022-11-28T11:28:21.596Z,21.40
2022-11-28T11:29:17.658Z,21.38
2022-11-28T11:30:13.305Z,21.37
2022-11-28T11:30:58.513Z,21.40
2022-11-28T11:31:53.938Z,21.38
2022-11-28T11:32:51.577Z,21.41
2022-11-28T11:33:45.022Z,21.37
2022-11-28T11:34:40.561Z,21.38
2022-11-28T11:35:36.613Z,21.35
2022-11-28T11:36:32.213Z,21.32
2022-11-28T11:37:27.753Z,21.35
2022-11-28T11:38:23.314Z,21.35
2022-11-28T11:39:18.850Z,21.37
2022-11-28T11:40:14.397Z,21.41
2022-11-28T11:41:09.956Z,21.38
2022-11-28T11:42:05.513Z,21.38
2022-11-28T11:43:01.051Z,21.40
2022-11-28T11:43:56.612Z,21.41
2022-11-28T11:44:52.162Z,21.45
2022-11-28T11:45:52.432Z,21.38
2022-11-28T11:46:43.813Z,21.41
2022-11-28T11:47:39.295Z,21.43
2022-11-28T11:48:34.836Z,21.44
2022-11-28T11:49:30.865Z,21.44
2022-11-28T11:50:26.407Z,21.38
2022-11-28T11:51:21.976Z,21.40
2022-11-28T11:52:17.609Z,21.35